createdAt,value
2023-03-06T00:02:01.369Z,97854.84
2023-03-06T00:05:18.712Z,97857.05
2023-03-06T00:08:35.849Z,97856.21
2023-03-06T00:11:51.829Z,97858.01
2023-03-06T00:15:08.113Z,97857.30
2023-03-06T00:18:24.366Z,97864.98
2023-03-06T00:21:40.706Z,97860.87
2023-03-06T00:24:58.519Z,97858.42
2023-03-06T00:28:15.639Z,97855.67
2023-03-06T00:31:31.873Z,97851.97
2023-03-06T00:34:48.096Z,97855.52
2023-03-06T00:38:04.276Z,97850.86
2023-03-06T00:41:22.126Z,97857.05
2023-03-06T00:44:38.939Z,97854.30
2023-03-06T00:47:55.037Z,97849.22
2023-03-06T00:51:13.924Z,97854.72
2023-03-06T00:54:31.288Z,97844.98
2023-03-06T00:57:47.767Z,97833.05
2023-03-06T01:01:04.057Z,97830.70
2023-03-06T01:04:20.305Z,97838.37
2023-03-06T01:07:37.727Z,97831.23
2023-03-06T01:10:53.860Z,97836.42
2023-03-06T01:14:10.011Z,97838.48
2023-03-06T01:17:28.470Z,97840.67
2023-03-06T01:20:46.317Z,97837.27
2023-03-06T01:24:02.551Z,97842.86
2023-03-06T01:27:18.673Z,97831.49
2023-03-06T01:30:34.987Z,97836.95
2023-03-06T01:33:51.054Z,97840.12
2023-03-06T01:37:07.318Z,97838.07
2023-03-06T01:40:24.141Z,97827.52
2023-03-06T01:43:43.156Z,97821.07
2023-03-06T01:47:01.457Z,97824.48
2023-03-06T01:50:19.733Z,97819.42
2023-03-06T01:53:36.231Z,97816.67
2023-03-06T01:56:56.885Z,97815.45
2023-03-06T02:00:20.703Z,97812.00
2023-03-06T02:03:39.620Z,97806.79
2023-03-06T02:06:56.556Z,97802.28
2023-03-06T02:10:14.522Z,97815.16
2023-03-06T02:13:30.734Z,97812.98
2023-03-06T02:16:47.437Z,97810.53
2023-03-06T02:20:09.272Z,97815.91
2023-03-06T02:23:31.018Z,97822.48
2023-03-06T02:26:49.691Z,97809.86
2023-03-06T02:30:05.744Z,97806.30
2023-03-06T02:33:24.797Z,97815.36
2023-03-06T02:36:45.129Z,97814.80
2023-03-06T02:40:08.771Z,97810.25
2023-03-06T02:43:28.865Z,97803.41
2023-03-06T02:46:45.315Z,97806.02
2023-03-06T02:50:01.479Z,97802.16
2023-03-06T02:53:20.767Z,97794.74
2023-03-06T02:56:36.985Z,97796.93
2023-03-06T02:59:53.485Z,97792.26
2023-03-06T03:03:10.911Z,97797.47
2023-03-06T03:06:27.083Z,97791.59
2023-03-06T03:09:43.184Z,97790.89
2023-03-06T03:12:59.704Z,97789.23
2023-03-06T03:16:20.991Z,97788.53
2023-03-06T03:19:37.311Z,97792.80
2023-03-06T03:23:00.661Z,97801.42
2023-03-06T03:26:20.786Z,97794.28
2023-03-06T03:29:38.755Z,97792.65
2023-03-06T03:32:54.960Z,97788.14
2023-03-06T03:36:13.816Z,97790.05
2023-03-06T03:39:34.348Z,97782.38
2023-03-06T03:42:51.540Z,97781.98
2023-03-06T03:46:08.170Z,97783.33
2023-03-06T03:49:25.740Z,97775.52
2023-03-06T03:52:42.473Z,97781.17
2023-03-06T03:55:59.637Z,97769.66
2023-03-06T03:59:16.537Z,97768.56
2023-03-06T04:02:34.362Z,97764.72
2023-03-06T04:05:56.297Z,97765.42
2023-03-06T04:09:13.232Z,97752.51
2023-03-06T04:12:29.915Z,97762.94
2023-03-06T04:15:46.000Z,97759.94
2023-03-06T04:19:02.343Z,97758.58
2023-03-06T04:22:18.653Z,97761.05
2023-03-06T04:25:35.138Z,97762.40
2023-03-06T04:28:51.852Z,97760.75
2023-03-06T04:32:08.624Z,97754.88
2023-03-06T04:35:25.278Z,97759.39
2023-03-06T04:38:43.290Z,97757.19
2023-03-06T04:41:59.891Z,97754.32
2023-03-06T04:45:18.505Z,97746.62
2023-03-06T04:48:36.503Z,97754.58
2023-03-06T04:51:52.686Z,97756.49
2023-03-06T04:55:09.503Z,97744.30
2023-03-06T04:58:26.112Z,97751.28
2023-03-06T05:01:42.219Z,97748.67
2023-03-06T05:04:58.224Z,97747.61
2023-03-06T05:08:16.089Z,97754.84
2023-03-06T05:11:32.280Z,97748.97
2023-03-06T05:14:48.509Z,97747.61
2023-03-06T05:18:04.524Z,97747.17
2023-03-06T05:21:20.611Z,97754.73
2023-03-06T05:24:36.765Z,97758.98
2023-03-06T05:27:53.440Z,97761.45
2023-03-06T05:31:09.747Z,97757.88
2023-03-06T05:34:26.471Z,97753.89
2023-03-06T05:37:42.993Z,97756.79
2023-03-06T05:40:59.622Z,97752.24
2023-03-06T05:44:15.940Z,97762.26
2023-03-06T05:47:32.101Z,97764.61
2023-03-06T05:50:48.189Z,97757.86
2023-03-06T05:54:04.249Z,97753.63
2023-03-06T05:57:20.295Z,97755.13
2023-03-06T06:00:36.792Z,97759.80
2023-03-06T06:03:53.287Z,97752.93
2023-03-06T06:07:10.941Z,97750.70
2023-03-06T06:10:26.682Z,97753.17
2023-03-06T06:13:43.905Z,97744.66
2023-03-06T06:17:00.207Z,97748.80
2023-03-06T06:20:19.965Z,97755.36
2023-03-06T06:23:33.765Z,97755.77
2023-03-06T06:26:50.125Z,97757.00
2023-03-06T06:30:06.148Z,97759.55
2023-03-06T06:33:22.254Z,97759.14
2023-03-06T06:36:38.491Z,97754.88
2023-03-06T06:39:54.618Z,97762.80
2023-03-06T06:43:10.712Z,97767.45
2023-03-06T06:47:14.402Z,97755.98
2023-03-06T06:49:47.428Z,97754.91
2023-03-06T06:53:03.986Z,97759.53
2023-03-06T06:56:20.052Z,97749.72
2023-03-06T06:59:36.273Z,97742.40
2023-03-06T07:02:52.898Z,97739.25
2023-03-06T07:06:09.545Z,97753.00
2023-03-06T07:09:25.746Z,97753.50
2023-03-06T07:12:42.266Z,97749.94
2023-03-06T07:16:01.013Z,97743.05
2023-03-06T07:19:18.219Z,97748.47
2023-03-06T07:22:49.932Z,97753.38
2023-03-06T07:25:55.581Z,97748.80
2023-03-06T07:29:12.286Z,97753.20
2023-03-06T07:32:29.723Z,97756.66
2023-03-06T07:35:50.499Z,97754.84
2023-03-06T07:39:10.873Z,97764.16
2023-03-06T07:42:28.375Z,97770.54
2023-03-06T07:45:52.057Z,97764.66
2023-03-06T07:49:09.124Z,97771.17
2023-03-06T07:52:26.783Z,97775.71
2023-03-06T07:55:43.996Z,97769.48
2023-03-06T07:59:02.445Z,97765.36
2023-03-06T08:02:20.464Z,97759.77
2023-03-06T08:05:38.227Z,97768.31
2023-03-06T08:08:57.885Z,97771.00
2023-03-06T08:12:20.027Z,97768.27
2023-03-06T08:15:37.166Z,97773.89
2023-03-06T08:18:53.459Z,97766.07
2023-03-06T08:22:11.928Z,97769.70
2023-03-06T08:25:30.194Z,97769.06
2023-03-06T08:28:47.904Z,97774.67
2023-03-06T08:32:06.619Z,97771.73
2023-03-06T08:35:24.515Z,97768.13
2023-03-06T08:38:43.815Z,97766.00
2023-03-06T08:42:01.404Z,97779.47
2023-03-06T08:45:23.872Z,97769.44
2023-03-06T08:48:41.375Z,97783.22
2023-03-06T08:51:58.079Z,97782.75
2023-03-06T08:55:18.509Z,97783.88
2023-03-06T08:58:37.045Z,97784.20
2023-03-06T09:01:53.763Z,97786.47
2023-03-06T09:05:13.279Z,97791.86
2023-03-06T09:08:32.142Z,97787.77
2023-03-06T09:11:49.485Z,97788.66
2023-03-06T09:15:11.474Z,97790.44
2023-03-06T09:18:30.114Z,97787.33
2023-03-06T09:21:46.378Z,97785.08
2023-03-06T09:25:02.995Z,97785.68
2023-03-06T09:28:19.137Z,97783.23
2023-03-06T09:31:38.611Z,97786.64
2023-03-06T09:35:01.413Z,97777.88
2023-03-06T09:38:18.912Z,97783.38
2023-03-06T09:41:40.025Z,97781.76
2023-03-06T09:45:00.724Z,97781.69
2023-03-06T09:48:21.230Z,97777.77
2023-03-06T09:51:43.455Z,97771.59
2023-03-06T09:55:06.821Z,97760.59
2023-03-06T09:58:29.426Z,97774.55
2023-03-06T10:01:49.594Z,97766.09
2023-03-06T10:05:13.008Z,97770.39
2023-03-06T10:08:36.447Z,97773.55
2023-03-06T10:11:58.232Z,97757.79
2023-03-06T10:15:23.906Z,97763.86
2023-03-06T10:18:41.816Z,97762.86
2023-03-06T10:22:05.293Z,97749.77
2023-03-06T10:25:28.793Z,97756.69
2023-03-06T10:28:48.506Z,97747.76
2023-03-06T10:32:11.775Z,97749.20
2023-03-06T10:35:33.642Z,97742.91
2023-03-06T10:38:52.258Z,97746.31
2023-03-06T10:42:10.683Z,97743.67
2023-03-06T10:45:29.916Z,97743.81
2023-03-06T10:48:49.085Z,97738.20
2023-03-06T10:52:13.881Z,97729.94
2023-03-06T10:55:38.557Z,97730.19
2023-03-06T10:58:59.555Z,97717.02
2023-03-06T11:02:39.299Z,97724.78
2023-03-06T11:06:21.696Z,97711.27
2023-03-06T11:09:38.626Z,97712.48
2023-03-06T11:13:06.821Z,97708.06
2023-03-06T11:16:33.106Z,97702.52
2023-03-06T11:19:49.902Z,97700.38
2023-03-06T11:23:11.720Z,97695.95
2023-03-06T11:26:53.243Z,97691.98
2023-03-06T11:30:12.294Z,97698.66
2023-03-06T11:33:34.560Z,97684.95
2023-03-06T11:36:56.401Z,97684.52
2023-03-06T11:40:21.332Z,97675.06
2023-03-06T11:43:44.080Z,97672.28
2023-03-06T11:47:08.741Z,97668.18
2023-03-06T11:50:31.456Z,97651.03
2023-03-06T11:53:50.001Z,97649.60
2023-03-06T11:57:17.933Z,97643.59
2023-03-06T12:00:50.853Z,97640.28
2023-03-06T12:04:56.805Z,97633.22
2023-03-06T12:08:45.775Z,97622.73
2023-03-06T12:12:22.941Z,97617.73
2023-03-06T12:16:21.961Z,97615.14
2023-03-06T12:19:55.278Z,97613.90
2023-03-06T12:23:18.336Z,97612.64
2023-03-06T12:26:56.813Z,97607.64
2023-03-06T12:30:49.148Z,97605.42
2023-03-06T12:34:17.513Z,97601.09
2023-03-06T12:37:44.298Z,97601.20
2023-03-06T12:41:14.005Z,97607.36
2023-03-06T12:45:27.874Z,97593.03
2023-03-06T12:48:46.475Z,97600.94
2023-03-06T12:52:04.388Z,97593.09
2023-03-06T12:55:27.618Z,97595.82
2023-03-06T12:59:03.240Z,97594.18
2023-03-06T13:03:04.182Z,97587.87
2023-03-06T13:06:59.148Z,97594.97
2023-03-06T13:10:28.459Z,97588.70
2023-03-06T13:13:51.901Z,97580.34
2023-03-06T13:17:45.564Z,97586.80
2023-03-06T13:21:03.293Z,97585.07
2023-03-06T13:24:27.995Z,97573.25
2023-03-06T13:28:08.510Z,97579.41
2023-03-06T13:31:33.535Z,97577.97
2023-03-06T13:34:52.811Z,97572.99
2023-03-06T13:38:10.338Z,97564.92
2023-03-06T13:42:01.181Z,97557.48
2023-03-06T13:45:23.166Z,97556.77
2023-03-06T13:48:45.245Z,97554.14
2023-03-06T13:52:13.029Z,97552.34
2023-03-06T13:55:38.203Z,97545.88
2023-03-06T13:59:19.291Z,97544.89
2023-03-06T14:03:18.017Z,97543.98
2023-03-06T14:07:09.680Z,97555.91
2023-03-06T14:10:33.802Z,97543.49
2023-03-06T14:13:57.101Z,97544.28
2023-03-06T14:17:24.595Z,97553.88
2023-03-06T14:20:48.552Z,97558.31
2023-03-06T14:24:10.442Z,97554.56
2023-03-06T14:27:47.132Z,97563.88
2023-03-06T14:31:06.776Z,97566.13
2023-03-06T14:34:30.284Z,97568.16
2023-03-06T14:37:48.679Z,97567.58
2023-03-06T14:41:07.441Z,97564.84
2023-03-06T14:44:30.323Z,97563.39
2023-03-06T14:47:51.018Z,97558.83
2023-03-06T14:51:08.118Z,97562.95
2023-03-06T14:54:32.051Z,97556.54
2023-03-06T14:57:48.507Z,97554.34
2023-03-06T15:01:10.116Z,97554.95
2023-03-06T15:04:31.897Z,97552.70
2023-03-06T15:07:52.419Z,97555.03
2023-03-06T15:11:11.539Z,97548.43
2023-03-06T15:14:36.449Z,97545.47
2023-03-06T15:17:57.505Z,97539.33
2023-03-06T15:21:27.368Z,97533.23
2023-03-06T15:24:43.450Z,97541.02
2023-03-06T15:28:04.644Z,97543.69
2023-03-06T15:31:31.839Z,97547.42
2023-03-06T15:34:48.258Z,97547.81
2023-03-06T15:38:05.106Z,97535.64
2023-03-06T15:41:37.443Z,97537.97
2023-03-06T15:44:58.895Z,97545.55
2023-03-06T15:48:22.807Z,97542.75
2023-03-06T15:51:40.630Z,97541.62
2023-03-06T15:54:57.727Z,97537.02
2023-03-06T15:58:16.275Z,97534.75
2023-03-06T16:01:34.089Z,97542.16
2023-03-06T16:04:51.501Z,97534.61
2023-03-06T16:08:08.455Z,97531.51
2023-03-06T16:11:41.809Z,97533.51
2023-03-06T16:14:49.788Z,97542.99
2023-03-06T16:18:06.949Z,97539.74
2023-03-06T16:21:23.183Z,97530.05
2023-03-06T16:24:39.547Z,97534.52
2023-03-06T16:27:59.845Z,97538.78
2023-03-06T16:31:16.833Z,97540.93
2023-03-06T16:34:34.168Z,97548.98
2023-03-06T16:37:50.936Z,97546.33
2023-03-06T16:41:07.113Z,97539.74
2023-03-06T16:44:24.306Z,97531.57
2023-03-06T16:47:41.041Z,97533.23
2023-03-06T16:51:00.300Z,97541.62
2023-03-06T16:54:16.955Z,97543.63
2023-03-06T16:57:35.597Z,97545.60
2023-03-06T17:00:52.347Z,97546.58
2023-03-06T17:04:08.778Z,97554.79
2023-03-06T17:07:25.565Z,97557.56
2023-03-06T17:10:42.613Z,97557.06
2023-03-06T17:14:00.197Z,97562.13
2023-03-06T17:17:16.915Z,97559.36
2023-03-06T17:20:36.908Z,97559.86
2023-03-06T17:23:54.078Z,97555.58
2023-03-06T17:27:11.020Z,97557.04
2023-03-06T17:30:33.356Z,97561.45
2023-03-06T17:33:52.195Z,97559.00
2023-03-06T17:37:11.410Z,97553.27
2023-03-06T17:40:28.603Z,97560.86
2023-03-06T17:43:46.176Z,97558.91
2023-03-06T17:47:03.533Z,97555.35
2023-03-06T17:50:21.753Z,97556.20
2023-03-06T17:53:44.024Z,97558.66
2023-03-06T17:57:01.798Z,97555.69
2023-03-06T18:00:21.592Z,97562.08
2023-03-06T18:03:39.361Z,97560.13
2023-03-06T18:06:57.799Z,97556.56
2023-03-06T18:10:16.439Z,97557.40
2023-03-06T18:13:35.649Z,97555.78
2023-03-06T18:16:52.254Z,97560.53
2023-03-06T18:20:09.802Z,97554.80
2023-03-06T18:23:27.498Z,97554.47
2023-03-06T18:26:46.898Z,97546.12
2023-03-06T18:30:10.875Z,97548.72
2023-03-06T18:33:28.222Z,97538.90
2023-03-06T18:36:47.685Z,97547.91
2023-03-06T18:40:04.618Z,97543.97
2023-03-06T18:43:24.511Z,97547.55
2023-03-06T18:46:44.058Z,97546.42
2023-03-06T18:49:58.324Z,97544.61
2023-03-06T18:53:16.551Z,97544.28
2023-03-06T18:56:35.552Z,97542.00
2023-03-06T18:59:52.503Z,97542.00
2023-03-06T19:03:10.407Z,97540.36
2023-03-06T19:06:27.988Z,97533.95
2023-03-06T19:09:45.460Z,97543.28
2023-03-06T19:13:02.714Z,97535.27
2023-03-06T19:16:26.833Z,97540.33
2023-03-06T19:19:44.567Z,97541.16
2023-03-06T19:23:02.368Z,97539.02
2023-03-06T19:26:21.348Z,97540.00
2023-03-06T19:29:42.621Z,97536.73
2023-03-06T19:33:00.882Z,97539.19
2023-03-06T19:36:24.509Z,97541.80
2023-03-06T19:39:43.361Z,97541.02
2023-03-06T19:43:03.916Z,97535.12
2023-03-06T19:46:25.941Z,97536.27
2023-03-06T19:49:43.419Z,97534.14
2023-03-06T19:53:05.330Z,97532.03
2023-03-06T19:56:29.988Z,97532.83
2023-03-06T19:59:47.064Z,97530.38
2023-03-06T20:03:05.006Z,97536.42
2023-03-06T20:06:25.785Z,97532.33
2023-03-06T20:09:46.070Z,97529.41
2023-03-06T20:13:02.738Z,97539.21
2023-03-06T20:16:19.996Z,97537.57
2023-03-06T20:19:37.265Z,97542.14
2023-03-06T20:22:54.490Z,97532.00
2023-03-06T20:26:15.976Z,97543.78
2023-03-06T20:29:36.334Z,97545.56
2023-03-06T20:32:52.947Z,97542.61
2023-03-06T20:36:13.671Z,97545.56
2023-03-06T20:39:30.683Z,97547.81
2023-03-06T20:42:46.781Z,97540.80
2023-03-06T20:46:11.565Z,97535.06
2023-03-06T20:49:29.734Z,97526.88
2023-03-06T20:52:47.303Z,97536.68
2023-03-06T20:56:06.798Z,97532.58
2023-03-06T20:59:24.572Z,97529.97
2023-03-06T21:02:41.505Z,97526.55
2023-03-06T21:05:59.358Z,97535.53
2023-03-06T21:09:17.631Z,97527.69
2023-03-06T21:12:34.166Z,97530.44
2023-03-06T21:15:52.296Z,97531.58
2023-03-06T21:19:10.056Z,97523.86
2023-03-06T21:22:26.508Z,97524.81
2023-03-06T21:25:46.736Z,97527.77
2023-03-06T21:29:04.144Z,97518.73
2023-03-06T21:32:20.696Z,97523.30
2023-03-06T21:35:37.215Z,97527.05
2023-03-06T21:38:55.484Z,97530.13
2023-03-06T21:42:12.124Z,97519.66
2023-03-06T21:45:31.154Z,97528.80
2023-03-06T21:48:48.371Z,97521.47
2023-03-06T21:52:04.968Z,97522.09
2023-03-06T21:55:21.770Z,97521.42
2023-03-06T21:58:39.570Z,97517.66
2023-03-06T22:01:55.782Z,97519.13
2023-03-06T22:05:13.009Z,97514.88
2023-03-06T22:08:31.794Z,97507.49
2023-03-06T22:11:48.149Z,97508.79
2023-03-06T22:15:04.406Z,97508.95
2023-03-06T22:18:20.812Z,97507.82
2023-03-06T22:21:37.374Z,97503.72
2023-03-06T22:24:55.077Z,97501.92
2023-03-06T22:28:11.304Z,97501.11
2023-03-06T22:31:32.855Z,97493.05
2023-03-06T22:34:47.191Z,97494.00
2023-03-06T22:38:05.269Z,97490.11
2023-03-06T22:41:23.517Z,97487.59
2023-03-06T22:44:41.884Z,97493.07
2023-03-06T22:48:10.077Z,97489.83
2023-03-06T22:51:20.051Z,97490.14
2023-03-06T22:54:36.628Z,97496.33
2023-03-06T22:57:55.062Z,97500.66
2023-03-06T23:01:20.161Z,97492.23
2023-03-06T23:04:36.881Z,97497.66
2023-03-06T23:07:53.249Z,97499.14
2023-03-06T23:15:25.197Z,97499.75
2023-03-06T23:19:01.094Z,97502.56
2023-03-06T23:22:35.132Z,97493.38
2023-03-06T23:26:10.017Z,97494.95
2023-03-06T23:29:27.472Z,97496.03
2023-03-06T23:32:47.748Z,97496.88
2023-03-06T23:36:03.956Z,97498.52
2023-03-06T23:39:21.986Z,97499.22
2023-03-06T23:42:38.143Z,97499.68
2023-03-06T23:46:03.171Z,97505.47
2023-03-06T23:49:21.059Z,97503.02
2023-03-06T23:52:37.206Z,97502.61
2023-03-06T23:55:56.314Z,97497.58
2023-03-06T23:59:12.578Z,97496.80
